QTR7Q OTHH-OPKC
Flight info
| Callsign | QTR7Q |
|---|---|
| Flight time | 2h 1m |
| Altitude | 39000 |
| Route | KUPRO2E/34R KUPRO N300 GIDOB DCT TONVO A777 NADSO B524 ALPOR G216 LAKIV |
| Aircraft | A359/H-SDE2E3GHIJ1J3J4J5LM1ORWXY/LB1D1 |
Departure
| Time | 2026-05-06 18:44 |
|---|---|
| Airport | Hamad International Airport (OTHH) |
Arrival
| Time | 2026-05-06 20:45 |
|---|---|
| Airport | Jinnah International Airport (OPKC) |
| Time | Latitude | Longitude | Altitude | Speed | Heading |
|---|---|---|---|---|---|
| 2026-05-06 18:20 | 25.26290 | 51.61508 | 37 ft | 0 kts | 159° |
| 2026-05-06 18:35 | 25.26306 | 51.61501 | 35 ft | 3 kts | 159° |
| 2026-05-06 18:35 | 25.26323 | 51.61494 | 33 ft | 2 kts | 159° |
| 2026-05-06 18:35 | 25.26338 | 51.61488 | 34 ft | 2 kts | 159° |
| 2026-05-06 18:35 | 25.26355 | 51.61479 | 34 ft | 3 kts | 131° |
| 2026-05-06 18:36 | 25.26365 | 51.61461 | 34 ft | 3 kts | 92° |
| 2026-05-06 18:36 | 25.26363 | 51.61443 | 34 ft | 0 kts | 57° |
| 2026-05-06 18:38 | 25.26371 | 51.61459 | 33 ft | 4 kts | 60° |
| 2026-05-06 18:38 | 25.26389 | 51.61495 | 36 ft | 6 kts | 63° |
| 2026-05-06 18:38 | 25.26407 | 51.61545 | 36 ft | 8 kts | 68° |
| 2026-05-06 18:38 | 25.26430 | 51.61607 | 36 ft | 10 kts | 68° |
| 2026-05-06 18:39 | 25.26457 | 51.61681 | 36 ft | 11 kts | 69° |
| 2026-05-06 18:39 | 25.26487 | 51.61765 | 36 ft | 13 kts | 68° |
| 2026-05-06 18:39 | 25.26520 | 51.61861 | 36 ft | 14 kts | 76° |
| 2026-05-06 18:40 | 25.26385 | 51.61998 | 36 ft | 16 kts | 159° |
| 2026-05-06 18:40 | 25.26280 | 51.62044 | 36 ft | 17 kts | 158° |
| 2026-05-06 18:40 | 25.26165 | 51.62094 | 36 ft | 18 kts | 158° |
| 2026-05-06 18:40 | 25.26042 | 51.62149 | 36 ft | 20 kts | 158° |
| 2026-05-06 18:41 | 25.25909 | 51.62208 | 36 ft | 21 kts | 158° |
| 2026-05-06 18:41 | 25.25766 | 51.62271 | 36 ft | 23 kts | 158° |
| 2026-05-06 18:41 | 25.25639 | 51.62327 | 36 ft | 19 kts | 157° |
| 2026-05-06 18:41 | 25.25595 | 51.62439 | 35 ft | 18 kts | 75° |
| 2026-05-06 18:42 | 25.25662 | 51.62566 | 32 ft | 20 kts | 37° |
| 2026-05-06 18:42 | 25.25774 | 51.62574 | 32 ft | 0 kts | 340° |
| 2026-05-06 18:42 | 25.25832 | 51.62550 | 33 ft | 36 kts | 339° |
| 2026-05-06 18:42 | 25.26279 | 51.62353 | 34 ft | 101 kts | 338° |
| 2026-05-06 18:43 | 25.27114 | 51.61986 | 31 ft | 156 kts | 339° |
| 2026-05-06 18:43 | 25.28215 | 51.61481 | 206 ft | 183 kts | 340° |
| 2026-05-06 18:43 | 25.29498 | 51.60924 | 298 ft | 217 kts | 340° |
| 2026-05-06 18:43 | 25.31029 | 51.60306 | 523 ft | 245 kts | 341° |
| 2026-05-06 18:44 | 25.32686 | 51.60150 | 1458 ft | 240 kts | 7° |
| 2026-05-06 18:44 | 25.34252 | 51.60707 | 2236 ft | 232 kts | 21° |
| 2026-05-06 18:44 | 25.35545 | 51.61682 | 2906 ft | 225 kts | 53° |
| 2026-05-06 18:44 | 25.36030 | 51.63285 | 3429 ft | 224 kts | 88° |
| 2026-05-06 18:45 | 25.36039 | 51.65008 | 3917 ft | 225 kts | 87° |
| 2026-05-06 18:45 | 25.36199 | 51.66719 | 4414 ft | 224 kts | 79° |
| 2026-05-06 18:45 | 25.36547 | 51.68412 | 4849 ft | 227 kts | 73° |
| 2026-05-06 18:45 | 25.36833 | 51.70145 | 5261 ft | 232 kts | 87° |
| 2026-05-06 18:46 | 25.36635 | 51.71952 | 5544 ft | 245 kts | 100° |
| 2026-05-06 18:46 | 25.36234 | 51.73843 | 5711 ft | 261 kts | 102° |
| 2026-05-06 18:46 | 25.35795 | 51.75850 | 5908 ft | 275 kts | 102° |
| 2026-05-06 18:46 | 25.35354 | 51.77940 | 6287 ft | 282 kts | 101° |
| 2026-05-06 18:47 | 25.34916 | 51.80065 | 6734 ft | 285 kts | 101° |
| 2026-05-06 18:47 | 25.34483 | 51.82203 | 7245 ft | 286 kts | 101° |
| 2026-05-06 18:47 | 25.34051 | 51.84352 | 7725 ft | 287 kts | 101° |
| 2026-05-06 18:47 | 25.33621 | 51.86514 | 8187 ft | 289 kts | 100° |
| 2026-05-06 18:48 | 25.33187 | 51.88697 | 8666 ft | 291 kts | 101° |
| 2026-05-06 18:48 | 25.32748 | 51.90888 | 9149 ft | 293 kts | 101° |
| 2026-05-06 18:48 | 25.32308 | 51.93093 | 9625 ft | 295 kts | 101° |
| 2026-05-06 18:48 | 25.31863 | 51.95316 | 10065 ft | 297 kts | 100° |
| 2026-05-06 18:49 | 25.31410 | 51.97584 | 10312 ft | 308 kts | 100° |
| 2026-05-06 18:49 | 25.30941 | 51.99942 | 10496 ft | 320 kts | 101° |
| 2026-05-06 18:49 | 25.30453 | 52.02388 | 10640 ft | 332 kts | 101° |
| 2026-05-06 18:49 | 25.29948 | 52.04910 | 10920 ft | 338 kts | 101° |
| 2026-05-06 18:50 | 25.29442 | 52.07427 | 11526 ft | 332 kts | 100° |
| 2026-05-06 18:50 | 25.28882 | 52.09866 | 12272 ft | 323 kts | 104° |
| 2026-05-06 18:50 | 25.28182 | 52.12213 | 12849 ft | 323 kts | 107° |
| 2026-05-06 18:50 | 25.27434 | 52.14597 | 13031 ft | 334 kts | 107° |
| 2026-05-06 18:51 | 25.26667 | 52.17026 | 13193 ft | 344 kts | 107° |
| 2026-05-06 18:51 | 25.25868 | 52.19558 | 13331 ft | 354 kts | 107° |
| 2026-05-06 18:51 | 25.25045 | 52.22162 | 13486 ft | 364 kts | 107° |
| 2026-05-06 18:51 | 25.24202 | 52.24828 | 13649 ft | 371 kts | 107° |
| 2026-05-06 18:52 | 25.23346 | 52.27536 | 13907 ft | 375 kts | 107° |
| 2026-05-06 18:52 | 25.22485 | 52.30260 | 14202 ft | 377 kts | 108° |
| 2026-05-06 18:52 | 25.21617 | 52.33001 | 14505 ft | 379 kts | 107° |
| 2026-05-06 18:52 | 25.20745 | 52.35754 | 14807 ft | 381 kts | 108° |
| 2026-05-06 18:53 | 25.19868 | 52.38524 | 15107 ft | 383 kts | 107° |
| 2026-05-06 18:53 | 25.18989 | 52.41306 | 15415 ft | 385 kts | 108° |
| 2026-05-06 18:53 | 25.18104 | 52.44105 | 15741 ft | 386 kts | 108° |
| 2026-05-06 18:53 | 25.17215 | 52.46906 | 16080 ft | 387 kts | 108° |
| 2026-05-06 18:54 | 25.16321 | 52.49723 | 16366 ft | 390 kts | 108° |
| 2026-05-06 18:54 | 25.15425 | 52.52554 | 16672 ft | 392 kts | 108° |
| 2026-05-06 18:54 | 25.14781 | 52.55475 | 17027 ft | 392 kts | 97° |
| 2026-05-06 18:54 | 25.14512 | 52.58469 | 17330 ft | 394 kts | 94° |
| 2026-05-06 18:55 | 25.14389 | 52.61501 | 17604 ft | 397 kts | 91° |
| 2026-05-06 18:55 | 25.14353 | 52.64550 | 17901 ft | 399 kts | 90° |
| 2026-05-06 18:55 | 25.14358 | 52.67618 | 18176 ft | 401 kts | 90° |
| 2026-05-06 18:55 | 25.14376 | 52.70704 | 18422 ft | 403 kts | 90° |
| 2026-05-06 18:56 | 25.14392 | 52.73812 | 18660 ft | 406 kts | 90° |
| 2026-05-06 18:56 | 25.14399 | 52.76933 | 18906 ft | 408 kts | 90° |
| 2026-05-06 18:56 | 25.14397 | 52.80074 | 19142 ft | 410 kts | 91° |
| 2026-05-06 18:56 | 25.14389 | 52.83234 | 19375 ft | 413 kts | 90° |
| 2026-05-06 18:57 | 25.14377 | 52.86406 | 19654 ft | 414 kts | 91° |
| 2026-05-06 18:57 | 25.14363 | 52.89596 | 19865 ft | 418 kts | 91° |
| 2026-05-06 18:57 | 25.14347 | 52.92813 | 20107 ft | 419 kts | 90° |
| 2026-05-06 18:57 | 25.14331 | 52.96033 | 20375 ft | 421 kts | 91° |
| 2026-05-06 18:58 | 25.14315 | 52.99279 | 20551 ft | 425 kts | 90° |
| 2026-05-06 18:58 | 25.14298 | 53.02499 | 20843 ft | 425 kts | 90° |
| 2026-05-06 18:58 | 25.14280 | 53.05767 | 21071 ft | 428 kts | 90° |
| 2026-05-06 18:58 | 25.14262 | 53.09060 | 21297 ft | 430 kts | 90° |
| 2026-05-06 18:59 | 25.14243 | 53.12359 | 21594 ft | 430 kts | 90° |
| 2026-05-06 18:59 | 25.14223 | 53.15670 | 21799 ft | 433 kts | 90° |
| 2026-05-06 18:59 | 25.14203 | 53.18996 | 22053 ft | 434 kts | 90° |
| 2026-05-06 18:59 | 25.14181 | 53.22330 | 22290 ft | 436 kts | 90° |
| 2026-05-06 19:00 | 25.14159 | 53.25684 | 22482 ft | 438 kts | 90° |
| 2026-05-06 19:00 | 25.14136 | 53.29048 | 22753 ft | 439 kts | 90° |
| 2026-05-06 19:00 | 25.14112 | 53.32423 | 22978 ft | 441 kts | 90° |
| 2026-05-06 19:00 | 25.14095 | 53.34709 | 23107 ft | 442 kts | 90° |
| 2026-05-06 19:01 | 25.14061 | 53.39209 | 23394 ft | 444 kts | 90° |
| 2026-05-06 19:01 | 25.14035 | 53.42625 | 23565 ft | 446 kts | 90° |
| 2026-05-06 19:01 | 25.14007 | 53.46053 | 23732 ft | 448 kts | 90° |
| 2026-05-06 19:01 | 25.13978 | 53.49491 | 23893 ft | 449 kts | 91° |
| 2026-05-06 19:02 | 25.13949 | 53.52945 | 24058 ft | 451 kts | 91° |
| 2026-05-06 19:02 | 25.13919 | 53.56411 | 24224 ft | 453 kts | 91° |
| 2026-05-06 19:02 | 25.13887 | 53.59892 | 24384 ft | 454 kts | 91° |
| 2026-05-06 19:02 | 25.13855 | 53.63382 | 24546 ft | 456 kts | 91° |
| 2026-05-06 19:03 | 25.13822 | 53.66887 | 24709 ft | 457 kts | 91° |
| 2026-05-06 19:03 | 25.13788 | 53.70402 | 24869 ft | 459 kts | 91° |
| 2026-05-06 19:03 | 25.13753 | 53.73933 | 25024 ft | 461 kts | 91° |
| 2026-05-06 19:03 | 25.13717 | 53.77470 | 25190 ft | 462 kts | 91° |
| 2026-05-06 19:04 | 25.13681 | 53.81026 | 25338 ft | 464 kts | 91° |
| 2026-05-06 19:04 | 25.13643 | 53.84589 | 25506 ft | 465 kts | 91° |
| 2026-05-06 19:04 | 25.13604 | 53.88166 | 25665 ft | 467 kts | 91° |
| 2026-05-06 19:04 | 25.13564 | 53.91750 | 25823 ft | 469 kts | 91° |
| 2026-05-06 19:05 | 25.13537 | 53.94135 | 25930 ft | 470 kts | 91° |
| 2026-05-06 19:05 | 25.13496 | 53.97746 | 26075 ft | 471 kts | 91° |
| 2026-05-06 19:05 | 25.13453 | 54.01414 | 26254 ft | 473 kts | 91° |
| 2026-05-06 19:05 | 25.13409 | 54.05047 | 26429 ft | 474 kts | 91° |
| 2026-05-06 19:06 | 25.13365 | 54.08690 | 26585 ft | 476 kts | 91° |
| 2026-05-06 19:06 | 25.13319 | 54.12344 | 26733 ft | 477 kts | 91° |
| 2026-05-06 19:06 | 25.13273 | 54.15966 | 26903 ft | 479 kts | 92° |
| 2026-05-06 19:06 | 25.13225 | 54.19647 | 27059 ft | 481 kts | 92° |
| 2026-05-06 19:07 | 25.13176 | 54.23392 | 27231 ft | 482 kts | 92° |
| 2026-05-06 19:07 | 25.13126 | 54.27096 | 27382 ft | 484 kts | 92° |
| 2026-05-06 19:07 | 25.13075 | 54.30772 | 27544 ft | 486 kts | 92° |
| 2026-05-06 19:07 | 25.13023 | 54.34506 | 27704 ft | 488 kts | 92° |
| 2026-05-06 19:08 | 25.12970 | 54.38250 | 27875 ft | 489 kts | 92° |
| 2026-05-06 19:08 | 25.12916 | 54.42014 | 28036 ft | 491 kts | 92° |
| 2026-05-06 19:08 | 25.12860 | 54.45788 | 28206 ft | 493 kts | 92° |
| 2026-05-06 19:08 | 25.12803 | 54.49571 | 28371 ft | 494 kts | 92° |
| 2026-05-06 19:09 | 25.12745 | 54.53372 | 28513 ft | 497 kts | 92° |
| 2026-05-06 19:09 | 25.12686 | 54.57191 | 28665 ft | 499 kts | 92° |
| 2026-05-06 19:09 | 25.12626 | 54.61022 | 28825 ft | 500 kts | 92° |
| 2026-05-06 19:09 | 25.12565 | 54.64866 | 28998 ft | 502 kts | 92° |
| 2026-05-06 19:10 | 25.12502 | 54.68722 | 29152 ft | 504 kts | 92° |
| 2026-05-06 19:10 | 25.12438 | 54.72593 | 29309 ft | 505 kts | 92° |
| 2026-05-06 19:10 | 25.12373 | 54.76478 | 29468 ft | 507 kts | 92° |
| 2026-05-06 19:10 | 25.12306 | 54.80378 | 29603 ft | 510 kts | 92° |
| 2026-05-06 19:11 | 25.12239 | 54.84294 | 29780 ft | 511 kts | 92° |
| 2026-05-06 19:11 | 25.12170 | 54.88222 | 29930 ft | 513 kts | 92° |
| 2026-05-06 19:11 | 25.12100 | 54.92159 | 30103 ft | 514 kts | 92° |
| 2026-05-06 19:11 | 25.12029 | 54.96105 | 30255 ft | 515 kts | 92° |
| 2026-05-06 19:12 | 25.11957 | 55.00060 | 30417 ft | 517 kts | 92° |
| 2026-05-06 19:12 | 25.11883 | 55.04027 | 30566 ft | 518 kts | 92° |
| 2026-05-06 19:12 | 25.11807 | 55.08015 | 30732 ft | 520 kts | 92° |
| 2026-05-06 19:12 | 25.11731 | 55.12004 | 30892 ft | 521 kts | 92° |
| 2026-05-06 19:13 | 25.11653 | 55.16011 | 31056 ft | 523 kts | 92° |
| 2026-05-06 19:13 | 25.11574 | 55.20021 | 31221 ft | 524 kts | 92° |
| 2026-05-06 19:13 | 25.11494 | 55.24047 | 31381 ft | 525 kts | 92° |
| 2026-05-06 19:13 | 25.11412 | 55.28082 | 31525 ft | 527 kts | 92° |
| 2026-05-06 19:14 | 25.11329 | 55.32132 | 31641 ft | 529 kts | 92° |
| 2026-05-06 19:14 | 25.11245 | 55.36190 | 31791 ft | 530 kts | 92° |
| 2026-05-06 19:14 | 25.11159 | 55.40259 | 31937 ft | 531 kts | 92° |
| 2026-05-06 19:14 | 25.11072 | 55.44340 | 32080 ft | 532 kts | 92° |
| 2026-05-06 19:15 | 25.10984 | 55.48425 | 32215 ft | 534 kts | 92° |
| 2026-05-06 19:15 | 25.10895 | 55.52523 | 32352 ft | 535 kts | 92° |
| 2026-05-06 19:15 | 25.10804 | 55.56630 | 32471 ft | 537 kts | 92° |
| 2026-05-06 19:15 | 25.10712 | 55.60752 | 32592 ft | 538 kts | 92° |
| 2026-05-06 19:16 | 25.10618 | 55.64879 | 32742 ft | 539 kts | 92° |
| 2026-05-06 19:16 | 25.10523 | 55.69015 | 32872 ft | 540 kts | 92° |
| 2026-05-06 19:16 | 25.10427 | 55.73156 | 32995 ft | 541 kts | 92° |
| 2026-05-06 19:16 | 25.10329 | 55.77309 | 33105 ft | 542 kts | 92° |
| 2026-05-06 19:17 | 25.10230 | 55.81461 | 33303 ft | 541 kts | 92° |
| 2026-05-06 19:17 | 25.10130 | 55.85615 | 33449 ft | 542 kts | 92° |
| 2026-05-06 19:17 | 25.10029 | 55.89772 | 33544 ft | 543 kts | 92° |
| 2026-05-06 19:17 | 25.09928 | 55.93887 | 33693 ft | 544 kts | 92° |
| 2026-05-06 19:18 | 25.09822 | 55.98111 | 33878 ft | 543 kts | 92° |
| 2026-05-06 19:18 | 25.09717 | 56.02272 | 34029 ft | 543 kts | 92° |
| 2026-05-06 19:18 | 25.09612 | 56.06382 | 34203 ft | 543 kts | 92° |
| 2026-05-06 19:18 | 25.09505 | 56.10540 | 34374 ft | 542 kts | 92° |
| 2026-05-06 19:19 | 25.09397 | 56.14695 | 34537 ft | 542 kts | 92° |
| 2026-05-06 19:19 | 25.09288 | 56.18844 | 34761 ft | 540 kts | 92° |
| 2026-05-06 19:19 | 25.09178 | 56.22985 | 34955 ft | 540 kts | 92° |
| 2026-05-06 19:19 | 25.09066 | 56.27129 | 35076 ft | 541 kts | 92° |
| 2026-05-06 19:20 | 25.08953 | 56.31269 | 35280 ft | 540 kts | 92° |
| 2026-05-06 19:20 | 25.08840 | 56.35403 | 35500 ft | 539 kts | 92° |
| 2026-05-06 19:20 | 25.08725 | 56.39536 | 35708 ft | 539 kts | 92° |
| 2026-05-06 19:20 | 25.08610 | 56.43664 | 35892 ft | 538 kts | 92° |
| 2026-05-06 19:21 | 25.08493 | 56.47788 | 36097 ft | 538 kts | 92° |
| 2026-05-06 19:21 | 25.08324 | 56.51904 | 36274 ft | 537 kts | 97° |
| 2026-05-06 19:21 | 25.07779 | 56.55966 | 36477 ft | 535 kts | 102° |
| 2026-05-06 19:21 | 25.07093 | 56.59996 | 36675 ft | 534 kts | 103° |
| 2026-05-06 19:22 | 25.06354 | 56.64010 | 36873 ft | 533 kts | 103° |
| 2026-05-06 19:22 | 25.05589 | 56.68002 | 37157 ft | 531 kts | 104° |
| 2026-05-06 19:22 | 25.04817 | 56.71978 | 37394 ft | 529 kts | 104° |
| 2026-05-06 19:22 | 25.04046 | 56.75941 | 37577 ft | 529 kts | 104° |
| 2026-05-06 19:23 | 25.03276 | 56.79907 | 37785 ft | 529 kts | 104° |
| 2026-05-06 19:23 | 25.02510 | 56.83869 | 37963 ft | 528 kts | 104° |
| 2026-05-06 19:23 | 25.01746 | 56.87833 | 38176 ft | 528 kts | 104° |
| 2026-05-06 19:23 | 25.00985 | 56.91786 | 38372 ft | 527 kts | 104° |
| 2026-05-06 19:24 | 25.00225 | 56.95736 | 38550 ft | 526 kts | 104° |
| 2026-05-06 19:24 | 24.99465 | 56.99678 | 38693 ft | 526 kts | 104° |
| 2026-05-06 19:24 | 24.98707 | 57.03624 | 38781 ft | 526 kts | 104° |
| 2026-05-06 19:25 | 24.97182 | 57.11505 | 38799 ft | 526 kts | 104° |
| 2026-05-06 19:25 | 24.95659 | 57.19336 | 38796 ft | 526 kts | 104° |
| 2026-05-06 19:26 | 24.94122 | 57.27217 | 38791 ft | 526 kts | 104° |
| 2026-05-06 19:26 | 24.92586 | 57.35079 | 38794 ft | 524 kts | 104° |
| 2026-05-06 19:27 | 24.91048 | 57.42929 | 38793 ft | 524 kts | 104° |
| 2026-05-06 19:27 | 24.89505 | 57.50783 | 38799 ft | 524 kts | 104° |
| 2026-05-06 19:28 | 24.87958 | 57.58634 | 38796 ft | 525 kts | 104° |
| 2026-05-06 19:28 | 24.86407 | 57.66482 | 38800 ft | 525 kts | 104° |
| 2026-05-06 19:29 | 24.84850 | 57.74334 | 38795 ft | 525 kts | 104° |
| 2026-05-06 19:29 | 24.83288 | 57.82195 | 38790 ft | 526 kts | 104° |
| 2026-05-06 19:30 | 24.81715 | 57.90040 | 38788 ft | 524 kts | 104° |
| 2026-05-06 19:30 | 24.80118 | 57.97866 | 38791 ft | 524 kts | 104° |
| 2026-05-06 19:31 | 24.78516 | 58.05699 | 38788 ft | 525 kts | 104° |
| 2026-05-06 19:31 | 24.76115 | 58.17443 | 38782 ft | 524 kts | 104° |
| 2026-05-06 19:32 | 24.74510 | 58.25266 | 38780 ft | 525 kts | 104° |
| 2026-05-06 19:32 | 24.72911 | 58.33045 | 38774 ft | 525 kts | 105° |
| 2026-05-06 19:33 | 24.71295 | 58.40882 | 38774 ft | 525 kts | 105° |
| 2026-05-06 19:33 | 24.69676 | 58.48712 | 38771 ft | 525 kts | 105° |
| 2026-05-06 19:34 | 24.68051 | 58.56546 | 38772 ft | 526 kts | 105° |
| 2026-05-06 19:34 | 24.66422 | 58.64382 | 38771 ft | 526 kts | 105° |
| 2026-05-06 19:35 | 24.64788 | 58.72219 | 38771 ft | 526 kts | 105° |
| 2026-05-06 19:35 | 24.63150 | 58.80051 | 38771 ft | 526 kts | 105° |
| 2026-05-06 19:36 | 24.61509 | 58.87879 | 38777 ft | 526 kts | 105° |
| 2026-05-06 19:36 | 24.59866 | 58.95696 | 38777 ft | 526 kts | 105° |
| 2026-05-06 19:37 | 24.58215 | 59.03524 | 38783 ft | 526 kts | 105° |
| 2026-05-06 19:37 | 24.56841 | 59.10025 | 38774 ft | 525 kts | 105° |
| 2026-05-06 19:38 | 24.54907 | 59.19154 | 38780 ft | 525 kts | 105° |
| 2026-05-06 19:38 | 24.53250 | 59.26970 | 38782 ft | 525 kts | 105° |
| 2026-05-06 19:39 | 24.51585 | 59.34773 | 38780 ft | 525 kts | 105° |
| 2026-05-06 19:39 | 24.49913 | 59.42578 | 38780 ft | 525 kts | 105° |
| 2026-05-06 19:40 | 24.48238 | 59.50387 | 38782 ft | 525 kts | 105° |
| 2026-05-06 19:40 | 24.46561 | 59.58186 | 38778 ft | 525 kts | 105° |
| 2026-05-06 19:41 | 24.44880 | 59.65985 | 38783 ft | 526 kts | 105° |
| 2026-05-06 19:41 | 24.43194 | 59.73787 | 38784 ft | 525 kts | 105° |
| 2026-05-06 19:42 | 24.41507 | 59.81577 | 38783 ft | 524 kts | 105° |
| 2026-05-06 19:42 | 24.39817 | 59.89356 | 38780 ft | 524 kts | 105° |
| 2026-05-06 19:43 | 24.38122 | 59.97136 | 38783 ft | 525 kts | 105° |
| 2026-05-06 19:43 | 24.36423 | 60.04918 | 38780 ft | 525 kts | 105° |
| 2026-05-06 19:44 | 24.34723 | 60.12698 | 38782 ft | 525 kts | 105° |
| 2026-05-06 19:44 | 24.33018 | 60.20479 | 38779 ft | 525 kts | 105° |
| 2026-05-06 19:45 | 24.31317 | 60.28202 | 38774 ft | 525 kts | 105° |
| 2026-05-06 19:45 | 24.29601 | 60.35982 | 38781 ft | 524 kts | 105° |
| 2026-05-06 19:46 | 24.27888 | 60.43733 | 38775 ft | 523 kts | 105° |
| 2026-05-06 19:46 | 24.26171 | 60.51483 | 38776 ft | 523 kts | 105° |
| 2026-05-06 19:47 | 24.24449 | 60.59232 | 38777 ft | 523 kts | 105° |
| 2026-05-06 19:47 | 24.22724 | 60.66978 | 38783 ft | 523 kts | 105° |
| 2026-05-06 19:48 | 24.20995 | 60.74727 | 38774 ft | 523 kts | 105° |
| 2026-05-06 19:48 | 24.19264 | 60.82474 | 38774 ft | 524 kts | 105° |
| 2026-05-06 19:49 | 24.17529 | 60.90231 | 38784 ft | 524 kts | 105° |
| 2026-05-06 19:49 | 24.15790 | 60.97983 | 38774 ft | 524 kts | 105° |
| 2026-05-06 19:50 | 24.14053 | 61.05709 | 38777 ft | 522 kts | 105° |
| 2026-05-06 19:50 | 24.12313 | 61.13426 | 38777 ft | 522 kts | 105° |
| 2026-05-06 19:51 | 24.10863 | 61.19839 | 38773 ft | 522 kts | 105° |
| 2026-05-06 19:51 | 24.08845 | 61.28866 | 38769 ft | 523 kts | 102° |
| 2026-05-06 19:52 | 24.08423 | 61.36727 | 38771 ft | 523 kts | 83° |
| 2026-05-06 19:52 | 24.09377 | 61.44632 | 38769 ft | 525 kts | 81° |
| 2026-05-06 19:53 | 24.10368 | 61.51239 | 38775 ft | 525 kts | 80° |
| 2026-05-06 19:53 | 24.11571 | 61.59124 | 38777 ft | 525 kts | 80° |
| 2026-05-06 19:54 | 24.12742 | 61.67019 | 38771 ft | 525 kts | 80° |
| 2026-05-06 19:54 | 24.13882 | 61.74865 | 38766 ft | 525 kts | 81° |
| 2026-05-06 19:55 | 24.15011 | 61.82768 | 38780 ft | 525 kts | 81° |
| 2026-05-06 19:55 | 24.16080 | 61.90684 | 38775 ft | 526 kts | 81° |
| 2026-05-06 19:56 | 24.17150 | 61.98607 | 38774 ft | 527 kts | 81° |
| 2026-05-06 19:56 | 24.18222 | 62.06555 | 38775 ft | 528 kts | 81° |
| 2026-05-06 19:57 | 24.19292 | 62.14505 | 38775 ft | 528 kts | 81° |
| 2026-05-06 19:57 | 24.20358 | 62.22462 | 38773 ft | 528 kts | 81° |
| 2026-05-06 19:58 | 24.21420 | 62.30414 | 38775 ft | 528 kts | 81° |
| 2026-05-06 19:58 | 24.22479 | 62.38376 | 38774 ft | 528 kts | 81° |
| 2026-05-06 19:59 | 24.23532 | 62.46333 | 38773 ft | 528 kts | 81° |
| 2026-05-06 19:59 | 24.24582 | 62.54292 | 38774 ft | 528 kts | 81° |
| 2026-05-06 20:00 | 24.25628 | 62.62255 | 38775 ft | 528 kts | 81° |
| 2026-05-06 20:00 | 24.26669 | 62.70211 | 38780 ft | 528 kts | 81° |
| 2026-05-06 20:01 | 24.27706 | 62.78174 | 38778 ft | 528 kts | 81° |
| 2026-05-06 20:01 | 24.28739 | 62.86135 | 38782 ft | 528 kts | 81° |
| 2026-05-06 20:02 | 24.29769 | 62.94111 | 38778 ft | 528 kts | 81° |
| 2026-05-06 20:02 | 24.30795 | 63.02085 | 38776 ft | 528 kts | 81° |
| 2026-05-06 20:03 | 24.31817 | 63.10063 | 38779 ft | 528 kts | 81° |
| 2026-05-06 20:03 | 24.32828 | 63.17989 | 38778 ft | 528 kts | 81° |
| 2026-05-06 20:04 | 24.33839 | 63.25950 | 38780 ft | 527 kts | 81° |
| 2026-05-06 20:04 | 24.34844 | 63.33897 | 38780 ft | 526 kts | 81° |
| 2026-05-06 20:05 | 24.35846 | 63.41849 | 38783 ft | 526 kts | 81° |
| 2026-05-06 20:05 | 24.36843 | 63.49805 | 38781 ft | 527 kts | 81° |
| 2026-05-06 20:06 | 24.37838 | 63.57771 | 38779 ft | 527 kts | 81° |
| 2026-05-06 20:06 | 24.38829 | 63.65743 | 38777 ft | 527 kts | 81° |
| 2026-05-06 20:07 | 24.39816 | 63.73719 | 38778 ft | 527 kts | 81° |
| 2026-05-06 20:07 | 24.40799 | 63.81694 | 38779 ft | 528 kts | 81° |
| 2026-05-06 20:08 | 24.41778 | 63.89677 | 38777 ft | 528 kts | 81° |
| 2026-05-06 20:08 | 24.42753 | 63.97663 | 38777 ft | 528 kts | 81° |
| 2026-05-06 20:09 | 24.43724 | 64.05650 | 38779 ft | 528 kts | 81° |
| 2026-05-06 20:09 | 24.44692 | 64.13640 | 38774 ft | 529 kts | 81° |
| 2026-05-06 20:10 | 24.45656 | 64.21640 | 38774 ft | 529 kts | 81° |
| 2026-05-06 20:10 | 24.46615 | 64.29635 | 38771 ft | 529 kts | 81° |
| 2026-05-06 20:11 | 24.47570 | 64.37638 | 38771 ft | 529 kts | 81° |
| 2026-05-06 20:11 | 24.48522 | 64.45644 | 38768 ft | 529 kts | 82° |
| 2026-05-06 20:12 | 24.49470 | 64.53657 | 38766 ft | 529 kts | 82° |
| 2026-05-06 20:12 | 24.50414 | 64.61670 | 38766 ft | 529 kts | 82° |
| 2026-05-06 20:13 | 24.51354 | 64.69685 | 38768 ft | 529 kts | 82° |
| 2026-05-06 20:13 | 24.52290 | 64.77706 | 38769 ft | 529 kts | 82° |
| 2026-05-06 20:14 | 24.53192 | 64.85730 | 38768 ft | 530 kts | 84° |
| 2026-05-06 20:14 | 24.53796 | 64.93788 | 38768 ft | 530 kts | 84° |
| 2026-05-06 20:15 | 24.54398 | 65.01857 | 38772 ft | 530 kts | 84° |
| 2026-05-06 20:15 | 24.55017 | 65.09934 | 38771 ft | 531 kts | 84° |
| 2026-05-06 20:16 | 24.55634 | 65.17959 | 38769 ft | 531 kts | 84° |
| 2026-05-06 20:16 | 24.56254 | 65.26044 | 38768 ft | 531 kts | 84° |
| 2026-05-06 20:17 | 24.56870 | 65.34130 | 38767 ft | 531 kts | 84° |
| 2026-05-06 20:17 | 24.57482 | 65.42224 | 38766 ft | 532 kts | 84° |
| 2026-05-06 20:18 | 24.58090 | 65.50322 | 38767 ft | 532 kts | 84° |
| 2026-05-06 20:18 | 24.58694 | 65.58422 | 38765 ft | 532 kts | 84° |
| 2026-05-06 20:19 | 24.59291 | 65.66486 | 38294 ft | 526 kts | 84° |
| 2026-05-06 20:19 | 24.59586 | 65.70495 | 37525 ft | 527 kts | 84° |
| 2026-05-06 20:19 | 24.59881 | 65.74520 | 36750 ft | 529 kts | 83° |
| 2026-05-06 20:20 | 24.60176 | 65.78553 | 36006 ft | 530 kts | 83° |
| 2026-05-06 20:20 | 24.60470 | 65.82595 | 35280 ft | 532 kts | 83° |
| 2026-05-06 20:20 | 24.60764 | 65.86649 | 34568 ft | 533 kts | 83° |
| 2026-05-06 20:20 | 24.61058 | 65.90714 | 33861 ft | 534 kts | 82° |
| 2026-05-06 20:21 | 24.61351 | 65.94783 | 33149 ft | 534 kts | 82° |
| 2026-05-06 20:21 | 24.61639 | 65.98822 | 32806 ft | 525 kts | 82° |
| 2026-05-06 20:21 | 24.61920 | 66.02780 | 32529 ft | 515 kts | 82° |
| 2026-05-06 20:21 | 24.62197 | 66.06686 | 32071 ft | 511 kts | 82° |
| 2026-05-06 20:22 | 24.62474 | 66.10570 | 31451 ft | 510 kts | 81° |
| 2026-05-06 20:22 | 24.62750 | 66.14455 | 30789 ft | 510 kts | 81° |
| 2026-05-06 20:22 | 24.63025 | 66.18345 | 30135 ft | 511 kts | 81° |
| 2026-05-06 20:22 | 24.63299 | 66.22238 | 29508 ft | 509 kts | 81° |
| 2026-05-06 20:23 | 24.63567 | 66.26096 | 29039 ft | 503 kts | 81° |
| 2026-05-06 20:23 | 24.63832 | 66.29911 | 28565 ft | 497 kts | 81° |
| 2026-05-06 20:23 | 24.64093 | 66.33680 | 28067 ft | 492 kts | 81° |
| 2026-05-06 20:23 | 24.64351 | 66.37411 | 27593 ft | 487 kts | 81° |
| 2026-05-06 20:24 | 24.64605 | 66.41103 | 27095 ft | 482 kts | 81° |
| 2026-05-06 20:24 | 24.64856 | 66.44757 | 26617 ft | 477 kts | 81° |
| 2026-05-06 20:24 | 24.65104 | 66.48373 | 26149 ft | 472 kts | 82° |
| 2026-05-06 20:24 | 24.65348 | 66.51956 | 25683 ft | 467 kts | 82° |
| 2026-05-06 20:25 | 24.65589 | 66.55501 | 25220 ft | 463 kts | 82° |
| 2026-05-06 20:25 | 24.65827 | 66.59007 | 24760 ft | 458 kts | 82° |
| 2026-05-06 20:25 | 24.66063 | 66.62489 | 24280 ft | 455 kts | 82° |
| 2026-05-06 20:25 | 24.66296 | 66.65940 | 23841 ft | 450 kts | 82° |
| 2026-05-06 20:26 | 24.66525 | 66.69347 | 23399 ft | 445 kts | 82° |
| 2026-05-06 20:26 | 24.66751 | 66.72723 | 22864 ft | 441 kts | 82° |
| 2026-05-06 20:26 | 24.66973 | 66.76064 | 22354 ft | 436 kts | 82° |
| 2026-05-06 20:26 | 24.67192 | 66.79364 | 21797 ft | 426 kts | 82° |
| 2026-05-06 20:27 | 24.67400 | 66.82545 | 21321 ft | 407 kts | 82° |
| 2026-05-06 20:27 | 24.67596 | 66.85565 | 20986 ft | 385 kts | 82° |
| 2026-05-06 20:27 | 24.67782 | 66.88423 | 20689 ft | 365 kts | 82° |
| 2026-05-06 20:27 | 24.67956 | 66.91096 | 20408 ft | 346 kts | 82° |
| 2026-05-06 20:28 | 24.68125 | 66.93694 | 20151 ft | 327 kts | 81° |
| 2026-05-06 20:28 | 24.68281 | 66.96089 | 19932 ft | 310 kts | 81° |
| 2026-05-06 20:28 | 24.68431 | 66.98383 | 19722 ft | 293 kts | 81° |
| 2026-05-06 20:28 | 24.68572 | 67.00562 | 19441 ft | 279 kts | 81° |
| 2026-05-06 20:29 | 24.68711 | 67.02658 | 19000 ft | 272 kts | 81° |
| 2026-05-06 20:29 | 24.69008 | 67.04672 | 18493 ft | 260 kts | 67° |
| 2026-05-06 20:29 | 24.69727 | 67.06400 | 18295 ft | 240 kts | 56° |
| 2026-05-06 20:29 | 24.70533 | 67.07930 | 18156 ft | 223 kts | 54° |
| 2026-05-06 20:30 | 24.71307 | 67.09354 | 17930 ft | 213 kts | 54° |
| 2026-05-06 20:30 | 24.72875 | 67.12216 | 16636 ft | 228 kts | 54° |
| 2026-05-06 20:30 | 24.73698 | 67.13727 | 16050 ft | 231 kts | 54° |
| 2026-05-06 20:31 | 24.74517 | 67.15241 | 15614 ft | 229 kts | 54° |
| 2026-05-06 20:31 | 24.75324 | 67.16737 | 15175 ft | 226 kts | 54° |
| 2026-05-06 20:31 | 24.76121 | 67.18214 | 14758 ft | 224 kts | 54° |
| 2026-05-06 20:31 | 24.76913 | 67.19680 | 14354 ft | 222 kts | 54° |
| 2026-05-06 20:32 | 24.77700 | 67.21138 | 13934 ft | 221 kts | 54° |
| 2026-05-06 20:32 | 24.78507 | 67.22626 | 13779 ft | 232 kts | 55° |
| 2026-05-06 20:32 | 24.79318 | 67.24131 | 13685 ft | 225 kts | 55° |
| 2026-05-06 20:32 | 24.80029 | 67.25646 | 13290 ft | 223 kts | 64° |
| 2026-05-06 20:33 | 24.80569 | 67.27240 | 12842 ft | 222 kts | 66° |
| 2026-05-06 20:33 | 24.81083 | 67.28840 | 12387 ft | 221 kts | 66° |
| 2026-05-06 20:33 | 24.81597 | 67.30430 | 11953 ft | 220 kts | 66° |
| 2026-05-06 20:33 | 24.82114 | 67.32014 | 11515 ft | 219 kts | 66° |
| 2026-05-06 20:34 | 24.82634 | 67.33591 | 11087 ft | 219 kts | 66° |
| 2026-05-06 20:34 | 24.83157 | 67.35160 | 10669 ft | 218 kts | 66° |
| 2026-05-06 20:34 | 24.83684 | 67.36724 | 10247 ft | 218 kts | 66° |
| 2026-05-06 20:34 | 24.84216 | 67.38283 | 9834 ft | 218 kts | 66° |
| 2026-05-06 20:35 | 24.84751 | 67.39842 | 9393 ft | 217 kts | 66° |
| 2026-05-06 20:35 | 24.85289 | 67.41396 | 8948 ft | 217 kts | 66° |
| 2026-05-06 20:35 | 24.85830 | 67.42947 | 8514 ft | 217 kts | 66° |
| 2026-05-06 20:35 | 24.86369 | 67.44498 | 8074 ft | 217 kts | 66° |
| 2026-05-06 20:36 | 24.86914 | 67.46048 | 7650 ft | 217 kts | 66° |
| 2026-05-06 20:36 | 24.87466 | 67.47590 | 7226 ft | 217 kts | 66° |
| 2026-05-06 20:36 | 24.88023 | 67.49132 | 6806 ft | 216 kts | 66° |
| 2026-05-06 20:36 | 24.88740 | 67.50573 | 6378 ft | 214 kts | 50° |
| 2026-05-06 20:37 | 24.89874 | 67.51593 | 5962 ft | 210 kts | 22° |
| 2026-05-06 20:37 | 24.91285 | 67.51814 | 5557 ft | 204 kts | 348° |
| 2026-05-06 20:37 | 24.92459 | 67.51094 | 5266 ft | 191 kts | 306° |
| 2026-05-06 20:37 | 24.92998 | 67.49803 | 4999 ft | 183 kts | 285° |
| 2026-05-06 20:38 | 24.93331 | 67.48465 | 4724 ft | 180 kts | 283° |
| 2026-05-06 20:38 | 24.93536 | 67.47585 | 4553 ft | 178 kts | 282° |
| 2026-05-06 20:38 | 24.93948 | 67.45831 | 4153 ft | 175 kts | 283° |
| 2026-05-06 20:38 | 24.94152 | 67.44981 | 4011 ft | 171 kts | 283° |
| 2026-05-06 20:39 | 24.94550 | 67.43338 | 3728 ft | 164 kts | 283° |
| 2026-05-06 20:39 | 24.94842 | 67.42143 | 3513 ft | 159 kts | 283° |
| 2026-05-06 20:39 | 24.95124 | 67.40993 | 3312 ft | 153 kts | 283° |
| 2026-05-06 20:39 | 24.95399 | 67.39876 | 3105 ft | 149 kts | 282° |
| 2026-05-06 20:40 | 24.95668 | 67.38788 | 2885 ft | 145 kts | 284° |
| 2026-05-06 20:40 | 24.95836 | 67.38063 | 2739 ft | 144 kts | 279° |
| 2026-05-06 20:40 | 24.95833 | 67.36978 | 2531 ft | 141 kts | 266° |
| 2026-05-06 20:40 | 24.95703 | 67.35920 | 2325 ft | 138 kts | 261° |
| 2026-05-06 20:41 | 24.95506 | 67.34886 | 2103 ft | 137 kts | 258° |
| 2026-05-06 20:41 | 24.95276 | 67.33871 | 2003 ft | 136 kts | 257° |
| 2026-05-06 20:41 | 24.95024 | 67.32856 | 1993 ft | 139 kts | 256° |
| 2026-05-06 20:41 | 24.94763 | 67.31825 | 1989 ft | 140 kts | 256° |
| 2026-05-06 20:42 | 24.94506 | 67.30789 | 1991 ft | 140 kts | 257° |
| 2026-05-06 20:42 | 24.94250 | 67.29754 | 1990 ft | 140 kts | 257° |
| 2026-05-06 20:42 | 24.93993 | 67.28724 | 1990 ft | 140 kts | 257° |
| 2026-05-06 20:42 | 24.93734 | 67.27685 | 1891 ft | 141 kts | 256° |
| 2026-05-06 20:43 | 24.93472 | 67.26649 | 1725 ft | 139 kts | 256° |
| 2026-05-06 20:43 | 24.93212 | 67.25624 | 1534 ft | 138 kts | 258° |
| 2026-05-06 20:43 | 24.92960 | 67.24617 | 1353 ft | 139 kts | 256° |
| 2026-05-06 20:43 | 24.92701 | 67.23589 | 1178 ft | 140 kts | 256° |
| 2026-05-06 20:44 | 24.92440 | 67.22549 | 1013 ft | 142 kts | 255° |
| 2026-05-06 20:44 | 24.92176 | 67.21506 | 809 ft | 142 kts | 255° |
| 2026-05-06 20:44 | 24.91909 | 67.20453 | 594 ft | 142 kts | 255° |
| 2026-05-06 20:44 | 24.91645 | 67.19402 | 394 ft | 143 kts | 254° |
| 2026-05-06 20:45 | 24.91377 | 67.18344 | 250 ft | 145 kts | 254° |
| 2026-05-06 20:45 | 24.91109 | 67.17278 | 125 ft | 139 kts | 253° |
| 2026-05-06 20:45 | 24.90866 | 67.16323 | 104 ft | 116 kts | 255° |
| 2026-05-06 20:45 | 24.90699 | 67.15790 | 102 ft | 21 kts | 226° |
| 2026-05-06 20:46 | 24.90617 | 67.15727 | 102 ft | 11 kts | 188° |
| 2026-05-06 20:46 | 24.90535 | 67.15722 | 103 ft | 12 kts | 174° |
| 2026-05-06 20:46 | 24.90448 | 67.15751 | 103 ft | 14 kts | 163° |
| 2026-05-06 20:46 | 24.90347 | 67.15778 | 103 ft | 16 kts | 167° |
| 2026-05-06 20:47 | 24.90242 | 67.15822 | 104 ft | 17 kts | 147° |
| 2026-05-06 20:47 | 24.90162 | 67.15855 | 103 ft | 0 kts | 164° |